sensor_id;sensor_type;location;lat;lon;timestamp;pressure;altitude;pressure_sealevel;temperature;humidity
21956;BME280;11142;49.930;8.606;2022-07-22T00:00:08;100516.78;;;18.78;92.68
21956;BME280;11142;49.930;8.606;2022-07-22T00:02:37;100513.06;;;18.80;92.01
21956;BME280;11142;49.930;8.606;2022-07-22T00:05:07;100512.25;;;18.70;92.38
21956;BME280;11142;49.930;8.606;2022-07-22T00:07:38;100511.97;;;18.73;92.29
21956;BME280;11142;49.930;8.606;2022-07-22T00:10:08;100514.03;;;18.70;92.44
21956;BME280;11142;49.930;8.606;2022-07-22T00:12:38;100508.22;;;18.66;92.38
21956;BME280;11142;49.930;8.606;2022-07-22T00:15:08;100516.94;;;18.67;92.68
21956;BME280;11142;49.930;8.606;2022-07-22T00:17:37;100516.66;;;18.60;93.25
21956;BME280;11142;49.930;8.606;2022-07-22T00:20:07;100517.88;;;18.56;93.35
21956;BME280;11142;49.930;8.606;2022-07-22T00:22:35;100515.94;;;18.48;93.88
21956;BME280;11142;49.930;8.606;2022-07-22T00:25:06;100516.22;;;18.45;93.71
21956;BME280;11142;49.930;8.606;2022-07-22T00:27:34;100516.72;;;18.39;94.54
21956;BME280;11142;49.930;8.606;2022-07-22T00:30:03;100503.06;;;18.36;94.21
21956;BME280;11142;49.930;8.606;2022-07-22T00:32:32;100504.56;;;18.29;94.94
21956;BME280;11142;49.930;8.606;2022-07-22T00:35:01;100502.91;;;18.28;94.74
21956;BME280;11142;49.930;8.606;2022-07-22T00:37:29;100503.16;;;18.25;94.63
21956;BME280;11142;49.930;8.606;2022-07-22T00:39:59;100495.69;;;18.20;94.66
21956;BME280;11142;49.930;8.606;2022-07-22T00:42:29;100495.16;;;18.17;94.75
21956;BME280;11142;49.930;8.606;2022-07-22T00:44:58;100495.16;;;18.17;95.11
21956;BME280;11142;49.930;8.606;2022-07-22T00:47:27;100495.41;;;18.14;94.79
21956;BME280;11142;49.930;8.606;2022-07-22T00:49:55;100490.84;;;18.16;94.77
21956;BME280;11142;49.930;8.606;2022-07-22T00:52:25;100492.06;;;18.02;95.23
21956;BME280;11142;49.930;8.606;2022-07-22T00:54:55;100492.59;;;17.96;95.38
21956;BME280;11142;49.930;8.606;2022-07-22T00:57:24;100488.06;;;17.98;95.36
21956;BME280;11142;49.930;8.606;2022-07-22T00:59:55;100482.94;;;17.96;95.17
21956;BME280;11142;49.930;8.606;2022-07-22T01:02:23;100488.31;;;17.95;95.61
21956;BME280;11142;49.930;8.606;2022-07-22T01:04:53;100481.13;;;17.87;95.39
21956;BME280;11142;49.930;8.606;2022-07-22T01:07:22;100489.41;;;17.92;95.75
21956;BME280;11142;49.930;8.606;2022-07-22T01:09:50;100496.19;;;17.95;95.69
21956;BME280;11142;49.930;8.606;2022-07-22T01:12:18;100499.91;;;17.92;95.68
21956;BME280;11142;49.930;8.606;2022-07-22T01:14:46;100500.50;;;18.05;94.99
21956;BME280;11142;49.930;8.606;2022-07-22T01:17:16;100494.84;;;18.00;95.13
21956;BME280;11142;49.930;8.606;2022-07-22T01:19:45;100503.25;;;17.94;95.45
21956;BME280;11142;49.930;8.606;2022-07-22T01:22:15;100491.16;;;17.82;96.06
21956;BME280;11142;49.930;8.606;2022-07-22T01:24:43;100496.84;;;17.78;96.63
21956;BME280;11142;49.930;8.606;2022-07-22T01:27:11;100506.06;;;17.72;97.19
21956;BME280;11142;49.930;8.606;2022-07-22T01:29:39;100504.56;;;17.79;97.13
21956;BME280;11142;49.930;8.606;2022-07-22T01:32:08;100504.50;;;18.00;95.82
21956;BME280;11142;49.930;8.606;2022-07-22T01:34:36;100509.06;;;17.98;95.58
21956;BME280;11142;49.930;8.606;2022-07-22T01:37:04;100505.47;;;18.09;94.79
21956;BME280;11142;49.930;8.606;2022-07-22T01:39:52;100504.97;;;18.34;93.82
21956;BME280;11142;49.930;8.606;2022-07-22T01:42:21;100501.25;;;18.46;92.52
21956;BME280;11142;49.930;8.606;2022-07-22T01:44:50;100497.84;;;18.55;91.72
21956;BME280;11142;49.930;8.606;2022-07-22T01:47:18;100502.97;;;18.66;90.72
21956;BME280;11142;49.930;8.606;2022-07-22T01:49:46;100500.72;;;18.71;90.25
21956;BME280;11142;49.930;8.606;2022-07-22T01:52:16;100505.88;;;18.53;90.77
21956;BME280;11142;49.930;8.606;2022-07-22T01:54:44;100511.19;;;18.14;93.15
21956;BME280;11142;49.930;8.606;2022-07-22T01:57:15;100502.59;;;18.21;92.99
21956;BME280;11142;49.930;8.606;2022-07-22T01:59:47;100498.88;;;18.24;92.83
21956;BME280;11142;49.930;8.606;2022-07-22T02:02:16;100496.75;;;18.08;93.61
21956;BME280;11142;49.930;8.606;2022-07-22T02:04:45;100498.16;;;18.02;94.43
21956;BME280;11142;49.930;8.606;2022-07-22T02:07:15;100504.31;;;17.92;94.86
21956;BME280;11142;49.930;8.606;2022-07-22T02:09:43;100502.25;;;17.95;94.69
21956;BME280;11142;49.930;8.606;2022-07-22T02:12:12;100505.06;;;18.03;94.40
21956;BME280;11142;49.930;8.606;2022-07-22T02:14:46;100507.75;;;18.23;93.07
21956;BME280;11142;49.930;8.606;2022-07-22T02:17:15;100503.75;;;18.38;91.69
21956;BME280;11142;49.930;8.606;2022-07-22T02:19:44;100510.38;;;18.32;92.09
21956;BME280;11142;49.930;8.606;2022-07-22T02:22:15;100504.84;;;18.35;91.54
21956;BME280;11142;49.930;8.606;2022-07-22T02:24:45;100507.22;;;18.48;91.34
21956;BME280;11142;49.930;8.606;2022-07-22T02:27:14;100512.25;;;18.70;90.13
21956;BME280;11142;49.930;8.606;2022-07-22T02:29:42;100505.47;;;18.68;89.84
21956;BME280;11142;49.930;8.606;2022-07-22T02:32:13;100499.13;;;18.21;92.20
21956;BME280;11142;49.930;8.606;2022-07-22T02:34:43;100504.22;;;17.93;93.95
21956;BME280;11142;49.930;8.606;2022-07-22T02:37:12;100498.09;;;17.83;94.82
21956;BME280;11142;49.930;8.606;2022-07-22T02:39:40;100502.25;;;17.86;95.37
21956;BME280;11142;49.930;8.606;2022-07-22T02:42:10;100496.94;;;17.76;95.46
21956;BME280;11142;49.930;8.606;2022-07-22T02:44:39;100501.13;;;17.79;95.57
21956;BME280;11142;49.930;8.606;2022-07-22T02:47:06;100501.25;;;17.77;95.83
21956;BME280;11142;49.930;8.606;2022-07-22T02:49:37;100508.78;;;17.91;95.06
21956;BME280;11142;49.930;8.606;2022-07-22T02:52:05;100509.53;;;18.22;93.61
21956;BME280;11142;49.930;8.606;2022-07-22T02:54:35;100507.53;;;18.54;91.79
21956;BME280;11142;49.930;8.606;2022-07-22T02:57:03;100505.44;;;18.48;90.92
21956;BME280;11142;49.930;8.606;2022-07-22T02:59:31;100509.09;;;18.27;91.99
21956;BME280;11142;49.930;8.606;2022-07-22T03:02:01;100513.56;;;18.26;92.10
21956;BME280;11142;49.930;8.606;2022-07-22T03:04:31;100514.66;;;18.43;91.71
21956;BME280;11142;49.930;8.606;2022-07-22T03:07:02;100514.31;;;18.86;89.89
21956;BME280;11142;49.930;8.606;2022-07-22T03:09:31;100509.72;;;18.97;88.54
21956;BME280;11142;49.930;8.606;2022-07-22T03:12:00;100510.28;;;18.72;89.13
21956;BME280;11142;49.930;8.606;2022-07-22T03:14:28;100516.22;;;18.45;91.00
21956;BME280;11142;49.930;8.606;2022-07-22T03:16:56;100516.66;;;18.50;90.56
21956;BME280;11142;49.930;8.606;2022-07-22T03:19:24;100518.38;;;18.31;91.72
21956;BME280;11142;49.930;8.606;2022-07-22T03:21:55;100514.03;;;17.91;93.95
21956;BME280;11142;49.930;8.606;2022-07-22T03:24:24;100516.00;;;17.69;95.86
21956;BME280;11142;49.930;8.606;2022-07-22T03:26:52;100523.75;;;17.49;97.37
21956;BME280;11142;49.930;8.606;2022-07-22T03:29:20;100521.88;;;17.31;98.63
21956;BME280;11142;49.930;8.606;2022-07-22T03:31:52;100516.03;;;17.27;99.32
21956;BME280;11142;49.930;8.606;2022-07-22T03:34:33;100520.38;;;17.38;99.39
21956;BME280;11142;49.930;8.606;2022-07-22T03:37:05;100518.19;;;17.43;98.78
21956;BME280;11142;49.930;8.606;2022-07-22T03:39:37;100507.59;;;17.54;97.75
21956;BME280;11142;49.930;8.606;2022-07-22T03:42:10;100512.84;;;17.54;98.38
21956;BME280;11142;49.930;8.606;2022-07-22T03:44:45;100521.66;;;17.43;98.44
21956;BME280;11142;49.930;8.606;2022-07-22T03:47:17;100516.03;;;17.27;99.63
21956;BME280;11142;49.930;8.606;2022-07-22T03:49:46;100516.56;;;17.21;99.93
21956;BME280;11142;49.930;8.606;2022-07-22T03:52:19;100514.63;;;17.23;100.00
21956;BME280;11142;49.930;8.606;2022-07-22T03:54:49;100513.91;;;17.63;98.37
21956;BME280;11142;49.930;8.606;2022-07-22T03:57:18;100514.38;;;17.77;96.30
21956;BME280;11142;49.930;8.606;2022-07-22T03:59:54;100511.47;;;18.30;94.11
21956;BME280;11142;49.930;8.606;2022-07-22T04:02:22;100518.44;;;18.79;91.40
21956;BME280;11142;49.930;8.606;2022-07-22T04:04:50;100522.88;;;18.59;90.91
21956;BME280;11142;49.930;8.606;2022-07-22T04:07:18;100522.31;;;18.75;90.27
21956;BME280;11142;49.930;8.606;2022-07-22T04:09:46;100519.56;;;18.76;89.44
21956;BME280;11142;49.930;8.606;2022-07-22T04:12:16;100516.22;;;18.93;88.07
21956;BME280;11142;49.930;8.606;2022-07-22T04:15:05;100518.06;;;18.83;88.82
21956;BME280;11142;49.930;8.606;2022-07-22T04:17:35;100516.66;;;18.70;88.92
21956;BME280;11142;49.930;8.606;2022-07-22T04:20:05;100511.19;;;18.42;90.44
21956;BME280;11142;49.930;8.606;2022-07-22T04:22:49;100510.09;;;18.26;91.54
21956;BME280;11142;49.930;8.606;2022-07-22T04:25:18;100506.66;;;18.44;90.93
21956;BME280;11142;49.930;8.606;2022-07-22T04:27:49;100506.22;;;18.49;90.08
21956;BME280;11142;49.930;8.606;2022-07-22T04:30:18;100497.38;;;18.40;90.93
21956;BME280;11142;49.930;8.606;2022-07-22T04:32:49;100500.88;;;18.89;88.53
21956;BME280;11142;49.930;8.606;2022-07-22T04:35:20;100494.59;;;19.09;87.23
21956;BME280;11142;49.930;8.606;2022-07-22T04:38:03;100495.34;;;19.48;85.54
21956;BME280;11142;49.930;8.606;2022-07-22T04:40:31;100497.75;;;19.78;83.22
21956;BME280;11142;49.930;8.606;2022-07-22T04:43:01;100497.13;;;20.11;81.65
21956;BME280;11142;49.930;8.606;2022-07-22T04:45:29;100498.25;;;20.09;80.61
21956;BME280;11142;49.930;8.606;2022-07-22T04:47:58;100500.88;;;19.91;82.20
21956;BME280;11142;49.930;8.606;2022-07-22T04:50:26;100497.03;;;20.31;80.64
21956;BME280;11142;49.930;8.606;2022-07-22T04:52:58;100502.63;;;20.63;78.29
21956;BME280;11142;49.930;8.606;2022-07-22T04:55:27;100506.84;;;20.56;78.73
21956;BME280;11142;49.930;8.606;2022-07-22T04:57:55;100505.78;;;20.31;78.63
21956;BME280;11142;49.930;8.606;2022-07-22T05:00:25;100502.03;;;20.24;79.46
21956;BME280;11142;49.930;8.606;2022-07-22T05:02:56;100507.34;;;19.97;80.72
21956;BME280;11142;49.930;8.606;2022-07-22T05:05:25;100500.91;;;20.09;80.37
21956;BME280;11142;49.930;8.606;2022-07-22T05:07:53;100502.91;;;19.97;80.28
21956;BME280;11142;49.930;8.606;2022-07-22T05:10:21;100503.41;;;19.46;82.78
21956;BME280;11142;49.930;8.606;2022-07-22T05:12:49;100498.00;;;19.48;83.33
21956;BME280;11142;49.930;8.606;2022-07-22T05:15:18;100496.78;;;19.42;83.83
21956;BME280;11142;49.930;8.606;2022-07-22T05:17:47;100497.53;;;19.62;82.65
21956;BME280;11142;49.930;8.606;2022-07-22T05:20:21;100496.59;;;19.44;83.84
21956;BME280;11142;49.930;8.606;2022-07-22T05:22:49;100501.31;;;19.50;83.61
21956;BME280;11142;49.930;8.606;2022-07-22T05:25:23;100490.94;;;19.39;83.70
21956;BME280;11142;49.930;8.606;2022-07-22T05:27:53;100497.41;;;19.54;83.09
21956;BME280;11142;49.930;8.606;2022-07-22T05:30:29;100496.56;;;19.90;81.64
21956;BME280;11142;49.930;8.606;2022-07-22T05:32:59;100507.75;;;20.47;79.28
21956;BME280;11142;49.930;8.606;2022-07-22T05:35:56;100502.84;;;20.07;80.25
21956;BME280;11142;49.930;8.606;2022-07-22T05:38:31;100502.50;;;19.92;81.27
21956;BME280;11142;49.930;8.606;2022-07-22T05:41:00;100503.81;;;20.06;81.30
21956;BME280;11142;49.930;8.606;2022-07-22T05:43:29;100510.22;;;20.03;81.04
21956;BME280;11142;49.930;8.606;2022-07-22T05:45:59;100512.06;;;20.48;79.39
21956;BME280;11142;49.930;8.606;2022-07-22T05:48:29;100515.34;;;20.85;77.59
21956;BME280;11142;49.930;8.606;2022-07-22T05:50:57;100517.56;;;21.15;76.14
21956;BME280;11142;49.930;8.606;2022-07-22T05:53:27;100512.41;;;21.32;74.99
21956;BME280;11142;49.930;8.606;2022-07-22T05:55:57;100516.69;;;21.25;75.03
21956;BME280;11142;49.930;8.606;2022-07-22T05:58:34;100522.22;;;21.22;75.42
21956;BME280;11142;49.930;8.606;2022-07-22T06:01:03;100514.91;;;21.33;74.83
21956;BME280;11142;49.930;8.606;2022-07-22T06:03:33;100512.66;;;21.03;76.26
21956;BME280;11142;49.930;8.606;2022-07-22T06:06:02;100507.78;;;20.90;76.90
21956;BME280;11142;49.930;8.606;2022-07-22T06:08:31;100512.44;;;20.96;77.36
21956;BME280;11142;49.930;8.606;2022-07-22T06:11:01;100507.47;;;20.93;77.75
21956;BME280;11142;49.930;8.606;2022-07-22T06:13:30;100508.06;;;21.23;76.59
21956;BME280;11142;49.930;8.606;2022-07-22T06:15:59;100506.44;;;21.55;75.55
21956;BME280;11142;49.930;8.606;2022-07-22T06:18:28;100501.69;;;21.93;73.00
21956;BME280;11142;49.930;8.606;2022-07-22T06:20:58;100498.63;;;22.21;71.38
21956;BME280;11142;49.930;8.606;2022-07-22T06:23:27;100498.16;;;22.34;71.03
21956;BME280;11142;49.930;8.606;2022-07-22T06:25:56;100506.78;;;22.44;69.94
21956;BME280;11142;49.930;8.606;2022-07-22T06:28:29;100503.31;;;22.52;69.80
21956;BME280;11142;49.930;8.606;2022-07-22T06:30:57;100508.16;;;22.81;68.80
21956;BME280;11142;49.930;8.606;2022-07-22T06:33:27;100509.09;;;23.44;66.96
21956;BME280;11142;49.930;8.606;2022-07-22T06:35:56;100509.31;;;24.20;65.02
21956;BME280;11142;49.930;8.606;2022-07-22T06:38:27;100507.22;;;24.84;61.92
21956;BME280;11142;49.930;8.606;2022-07-22T06:41:20;100512.97;;;25.10;61.17
21956;BME280;11142;49.930;8.606;2022-07-22T06:44:00;100522.97;;;25.75;57.88
21956;BME280;11142;49.930;8.606;2022-07-22T06:46:48;100515.53;;;25.18;58.23
21956;BME280;11142;49.930;8.606;2022-07-22T06:49:18;100509.38;;;24.89;58.90
21956;BME280;11142;49.930;8.606;2022-07-22T06:51:52;100509.81;;;25.88;55.75
21956;BME280;11142;49.930;8.606;2022-07-22T06:54:22;100509.56;;;26.33;53.65
21956;BME280;11142;49.930;8.606;2022-07-22T06:56:53;100515.66;;;26.49;52.43
21956;BME280;11142;49.930;8.606;2022-07-22T06:59:27;100517.06;;;26.66;52.70
21956;BME280;11142;49.930;8.606;2022-07-22T07:01:57;100515.41;;;27.07;50.18
21956;BME280;11142;49.930;8.606;2022-07-22T07:04:25;100509.00;;;27.29;49.81
21956;BME280;11142;49.930;8.606;2022-07-22T07:06:54;100502.31;;;26.84;51.00
21956;BME280;11142;49.930;8.606;2022-07-22T07:09:44;100502.81;;;26.80;50.90
21956;BME280;11142;49.930;8.606;2022-07-22T07:12:28;100504.97;;;27.12;50.12
21956;BME280;11142;49.930;8.606;2022-07-22T07:15:06;100496.69;;;27.28;49.49
21956;BME280;11142;49.930;8.606;2022-07-22T07:17:57;100492.84;;;28.19;47.83
21956;BME280;11142;49.930;8.606;2022-07-22T07:20:25;100496.84;;;29.15;45.32
21956;BME280;11142;49.930;8.606;2022-07-22T07:22:54;100495.41;;;29.19;44.37
21956;BME280;11142;49.930;8.606;2022-07-22T07:25:26;100493.94;;;29.49;43.19
21956;BME280;11142;49.930;8.606;2022-07-22T07:27:55;100489.66;;;29.42;42.94
21956;BME280;11142;49.930;8.606;2022-07-22T07:30:41;100476.19;;;27.29;47.74
21956;BME280;11142;49.930;8.606;2022-07-22T07:33:09;100477.88;;;26.38;50.35
21956;BME280;11142;49.930;8.606;2022-07-22T07:35:37;100477.19;;;24.15;57.70
21956;BME280;11142;49.930;8.606;2022-07-22T07:38:06;100462.75;;;24.63;57.27
21956;BME280;11142;49.930;8.606;2022-07-22T07:40:36;100467.28;;;22.91;63.84
21956;BME280;11142;49.930;8.606;2022-07-22T07:43:05;100462.13;;;23.06;63.93
21956;BME280;11142;49.930;8.606;2022-07-22T07:45:33;100467.63;;;25.12;57.75
21956;BME280;11142;49.930;8.606;2022-07-22T07:48:03;100464.00;;;25.71;55.23
21956;BME280;11142;49.930;8.606;2022-07-22T07:50:31;100465.19;;;25.69;53.83
21956;BME280;11142;49.930;8.606;2022-07-22T07:53:00;100471.13;;;24.29;59.48
21956;BME280;11142;49.930;8.606;2022-07-22T07:55:28;100467.50;;;25.57;55.43
21956;BME280;11142;49.930;8.606;2022-07-22T07:57:58;100464.69;;;25.07;55.94
21956;BME280;11142;49.930;8.606;2022-07-22T08:00:27;100463.72;;;24.48;57.92
21956;BME280;11142;49.930;8.606;2022-07-22T08:02:59;100468.06;;;24.86;57.09
21956;BME280;11142;49.930;8.606;2022-07-22T08:05:30;100460.16;;;25.74;54.47
21956;BME280;11142;49.930;8.606;2022-07-22T08:08:02;100469.91;;;25.15;55.56
21956;BME280;11142;49.930;8.606;2022-07-22T08:10:37;100460.44;;;23.84;60.66
21956;BME280;11142;49.930;8.606;2022-07-22T08:13:54;100448.78;;;22.83;65.63
21956;BME280;11142;49.930;8.606;2022-07-22T08:16:23;100453.72;;;23.96;59.61
21956;BME280;11142;49.930;8.606;2022-07-22T08:18:53;100450.25;;;23.96;60.55
21956;BME280;11142;49.930;8.606;2022-07-22T08:21:22;100452.56;;;23.99;58.89
21956;BME280;11142;49.930;8.606;2022-07-22T08:23:56;100451.75;;;23.59;61.08
21956;BME280;11142;49.930;8.606;2022-07-22T08:26:25;100464.53;;;25.08;56.38
21956;BME280;11142;49.930;8.606;2022-07-22T08:28:59;100459.81;;;26.76;51.02
21956;BME280;11142;49.930;8.606;2022-07-22T08:31:30;100459.59;;;27.68;47.95
21956;BME280;11142;49.930;8.606;2022-07-22T08:34:01;100465.75;;;27.62;48.62
21956;BME280;11142;49.930;8.606;2022-07-22T08:36:29;100449.78;;;29.78;42.03
21956;BME280;11142;49.930;8.606;2022-07-22T08:38:57;100451.25;;;30.19;41.52
21956;BME280;11142;49.930;8.606;2022-07-22T08:41:27;100453.34;;;30.10;41.07
21956;BME280;11142;49.930;8.606;2022-07-22T08:43:55;100446.56;;;30.70;41.00
21956;BME280;11142;49.930;8.606;2022-07-22T08:46:26;100451.00;;;31.80;37.31
21956;BME280;11142;49.930;8.606;2022-07-22T08:49:14;100448.50;;;32.56;36.79
21956;BME280;11142;49.930;8.606;2022-07-22T08:51:51;100448.38;;;34.12;34.70
21956;BME280;11142;49.930;8.606;2022-07-22T08:54:23;100453.47;;;35.47;32.17
21956;BME280;11142;49.930;8.606;2022-07-22T08:56:52;100454.34;;;35.53;30.72
21956;BME280;11142;49.930;8.606;2022-07-22T08:59:22;100448.53;;;34.34;32.55
21956;BME280;11142;49.930;8.606;2022-07-22T09:02:06;100448.44;;;33.49;34.12
21956;BME280;11142;49.930;8.606;2022-07-22T09:04:51;100447.59;;;33.84;34.15
21956;BME280;11142;49.930;8.606;2022-07-22T09:07:27;100445.38;;;35.09;31.10
21956;BME280;11142;49.930;8.606;2022-07-22T09:10:01;100441.38;;;32.97;34.89
21956;BME280;11142;49.930;8.606;2022-07-22T09:12:54;100442.56;;;34.04;33.17
21956;BME280;11142;49.930;8.606;2022-07-22T09:15:46;100440.97;;;35.03;32.21
21956;BME280;11142;49.930;8.606;2022-07-22T09:18:49;100441.81;;;33.40;33.75
21956;BME280;11142;49.930;8.606;2022-07-22T09:21:35;100437.03;;;32.20;35.49
21956;BME280;11142;49.930;8.606;2022-07-22T09:24:26;100433.22;;;32.27;35.93
21956;BME280;11142;49.930;8.606;2022-07-22T09:27:02;100433.06;;;32.22;36.46
21956;BME280;11142;49.930;8.606;2022-07-22T09:29:48;100430.16;;;30.29;38.81
21956;BME280;11142;49.930;8.606;2022-07-22T09:32:18;100416.06;;;29.71;40.07
21956;BME280;11142;49.930;8.606;2022-07-22T09:35:02;100415.16;;;30.77;38.99
21956;BME280;11142;49.930;8.606;2022-07-22T09:37:36;100416.81;;;30.53;38.39
21956;BME280;11142;49.930;8.606;2022-07-22T09:40:12;100415.38;;;27.93;42.79
21956;BME280;11142;49.930;8.606;2022-07-22T09:42:46;100405.44;;;27.26;45.00
21956;BME280;11142;49.930;8.606;2022-07-22T09:45:16;100405.38;;;29.07;42.90
21956;BME280;11142;49.930;8.606;2022-07-22T09:47:45;100403.13;;;30.62;39.12
21956;BME280;11142;49.930;8.606;2022-07-22T09:50:32;100408.53;;;31.23;37.17
21956;BME280;11142;49.930;8.606;2022-07-22T09:53:12;100405.53;;;32.27;36.01
21956;BME280;11142;49.930;8.606;2022-07-22T09:55:46;100397.00;;;31.04;36.71
21956;BME280;11142;49.930;8.606;2022-07-22T09:58:15;100398.38;;;29.70;39.26
21956;BME280;11142;49.930;8.606;2022-07-22T10:00:44;100398.75;;;30.67;39.32
21956;BME280;11142;49.930;8.606;2022-07-22T10:03:19;100396.53;;;31.91;37.11
21956;BME280;11142;49.930;8.606;2022-07-22T10:05:51;100395.06;;;33.06;35.63
21956;BME280;11142;49.930;8.606;2022-07-22T10:08:20;100398.00;;;34.13;33.23
21956;BME280;11142;49.930;8.606;2022-07-22T10:10:49;100396.59;;;34.94;32.52
21956;BME280;11142;49.930;8.606;2022-07-22T10:13:18;100391.00;;;35.87;31.06
21956;BME280;11142;49.930;8.606;2022-07-22T10:15:47;100401.22;;;36.39;29.86
21956;BME280;11142;49.930;8.606;2022-07-22T10:18:17;100398.41;;;36.55;29.10
21956;BME280;11142;49.930;8.606;2022-07-22T10:20:48;100396.72;;;35.64;29.67
21956;BME280;11142;49.930;8.606;2022-07-22T10:23:17;100389.38;;;34.61;31.46
21956;BME280;11142;49.930;8.606;2022-07-22T10:25:52;100398.16;;;34.90;30.80
21956;BME280;11142;49.930;8.606;2022-07-22T10:31:21;100382.81;;;34.74;30.36
21956;BME280;11142;49.930;8.606;2022-07-22T10:33:52;100378.63;;;35.21;30.25
21956;BME280;11142;49.930;8.606;2022-07-22T10:36:32;100380.56;;;35.69;29.25
21956;BME280;11142;49.930;8.606;2022-07-22T10:39:04;100374.84;;;36.98;28.98
21956;BME280;11142;49.930;8.606;2022-07-22T10:41:35;100373.72;;;35.61;28.84
21956;BME280;11142;49.930;8.606;2022-07-22T10:44:05;100372.78;;;36.04;29.17
21956;BME280;11142;49.930;8.606;2022-07-22T10:46:50;100378.94;;;36.53;28.36
21956;BME280;11142;49.930;8.606;2022-07-22T10:49:20;100367.34;;;37.15;27.69
21956;BME280;11142;49.930;8.606;2022-07-22T10:52:09;100359.34;;;34.91;29.29
21956;BME280;11142;49.930;8.606;2022-07-22T10:55:16;100340.34;;;30.94;35.70
21956;BME280;11142;49.930;8.606;2022-07-22T10:57:44;100340.03;;;31.56;35.65
21956;BME280;11142;49.930;8.606;2022-07-22T11:00:13;100333.56;;;31.87;34.66
21956;BME280;11142;49.930;8.606;2022-07-22T11:02:42;100335.94;;;32.72;33.14
21956;BME280;11142;49.930;8.606;2022-07-22T11:05:11;100341.38;;;33.11;32.24
21956;BME280;11142;49.930;8.606;2022-07-22T11:07:44;100334.47;;;32.23;33.27
21956;BME280;11142;49.930;8.606;2022-07-22T11:10:13;100321.88;;;31.82;34.15
21956;BME280;11142;49.930;8.606;2022-07-22T11:12:47;100318.59;;;30.66;36.69
21956;BME280;11142;49.930;8.606;2022-07-22T11:15:17;100315.47;;;30.87;35.14
21956;BME280;11142;49.930;8.606;2022-07-22T11:17:45;100315.56;;;31.46;34.95
21956;BME280;11142;49.930;8.606;2022-07-22T11:20:14;100314.75;;;32.40;32.76
21956;BME280;11142;49.930;8.606;2022-07-22T11:22:46;100312.13;;;33.43;32.01
21956;BME280;11142;49.930;8.606;2022-07-22T11:25:15;100304.34;;;34.20;30.98
21956;BME280;11142;49.930;8.606;2022-07-22T11:27:50;100313.13;;;35.09;29.20
21956;BME280;11142;49.930;8.606;2022-07-22T11:30:19;100308.44;;;36.33;28.19
21956;BME280;11142;49.930;8.606;2022-07-22T11:32:47;100310.81;;;38.80;24.46
21956;BME280;11142;49.930;8.606;2022-07-22T11:35:17;100324.94;;;41.56;21.72
21956;BME280;11142;49.930;8.606;2022-07-22T11:37:55;100321.72;;;43.77;19.45
21956;BME280;11142;49.930;8.606;2022-07-22T11:40:23;100336.16;;;46.21;16.65
21956;BME280;11142;49.930;8.606;2022-07-22T11:43:03;100313.47;;;41.92;19.77
21956;BME280;11142;49.930;8.606;2022-07-22T11:45:32;100314.03;;;44.41;18.10
21956;BME280;11142;49.930;8.606;2022-07-22T11:48:08;100316.50;;;47.16;15.87
21956;BME280;11142;49.930;8.606;2022-07-22T11:50:36;100324.44;;;49.37;14.14
21956;BME280;11142;49.930;8.606;2022-07-22T11:53:07;100315.97;;;50.64;13.14
21956;BME280;11142;49.930;8.606;2022-07-22T11:55:36;100288.78;;;45.26;16.32
21956;BME280;11142;49.930;8.606;2022-07-22T11:58:07;100287.69;;;43.70;17.59
21956;BME280;11142;49.930;8.606;2022-07-22T12:00:35;100290.81;;;44.30;17.34
21956;BME280;11142;49.930;8.606;2022-07-22T12:03:03;100288.31;;;43.31;18.19
21956;BME280;11142;49.930;8.606;2022-07-22T12:05:32;100271.84;;;38.46;22.62
21956;BME280;11142;49.930;8.606;2022-07-22T12:08:01;100260.03;;;36.89;25.11
21956;BME280;11142;49.930;8.606;2022-07-22T12:10:30;100259.69;;;37.98;24.00
21956;BME280;11142;49.930;8.606;2022-07-22T12:12:59;100261.31;;;37.89;24.00
21956;BME280;11142;49.930;8.606;2022-07-22T12:15:31;100256.38;;;37.20;24.57
21956;BME280;11142;49.930;8.606;2022-07-22T12:18:19;100261.78;;;41.49;19.69
21956;BME280;11142;49.930;8.606;2022-07-22T12:20:49;100265.22;;;41.73;19.83
21956;BME280;11142;49.930;8.606;2022-07-22T12:23:21;100273.72;;;42.86;18.77
21956;BME280;11142;49.930;8.606;2022-07-22T12:25:53;100289.38;;;47.06;15.42
21956;BME280;11142;49.930;8.606;2022-07-22T12:28:22;100294.66;;;50.64;13.28
21956;BME280;11142;49.930;8.606;2022-07-22T12:30:55;100293.38;;;51.70;12.35
21956;BME280;11142;49.930;8.606;2022-07-22T12:33:25;100287.22;;;52.25;12.03
21956;BME280;11142;49.930;8.606;2022-07-22T12:36:02;100301.59;;;53.43;10.84
21956;BME280;11142;49.930;8.606;2022-07-22T12:38:31;100281.31;;;52.79;11.41
21956;BME280;11142;49.930;8.606;2022-07-22T12:41:24;100242.69;;;42.14;18.52
21956;BME280;11142;49.930;8.606;2022-07-22T12:43:53;100236.84;;;42.75;18.87
21956;BME280;11142;49.930;8.606;2022-07-22T12:46:23;100224.25;;;39.90;21.17
21956;BME280;11142;49.930;8.606;2022-07-22T12:48:53;100220.31;;;39.44;21.84
21956;BME280;11142;49.930;8.606;2022-07-22T12:51:21;100204.75;;;34.95;27.05
21956;BME280;11142;49.930;8.606;2022-07-22T12:53:49;100220.06;;;38.37;23.37
21956;BME280;11142;49.930;8.606;2022-07-22T12:56:19;100206.28;;;37.28;23.92
21956;BME280;11142;49.930;8.606;2022-07-22T12:58:48;100209.66;;;38.54;23.42
21956;BME280;11142;49.930;8.606;2022-07-22T13:01:16;100202.44;;;38.19;23.22
21956;BME280;11142;49.930;8.606;2022-07-22T13:03:46;100193.00;;;37.21;25.03
21956;BME280;11142;49.930;8.606;2022-07-22T13:06:14;100218.47;;;41.80;19.53
21956;BME280;11142;49.930;8.606;2022-07-22T13:08:42;100223.28;;;44.90;16.96
21956;BME280;11142;49.930;8.606;2022-07-22T13:11:13;100220.91;;;47.45;15.85
21956;BME280;11142;49.930;8.606;2022-07-22T13:13:41;100224.50;;;47.91;14.54
21956;BME280;11142;49.930;8.606;2022-07-22T13:16:12;100222.19;;;46.44;15.59